createdAt,value
2019-06-20T00:02:18.720Z,100262.28
2019-06-20T00:05:26.238Z,100256.03
2019-06-20T00:08:33.708Z,100258.43
2019-06-20T00:11:40.984Z,100264.69
2019-06-20T00:14:48.747Z,100269.11
2019-06-20T00:17:56.150Z,100266.30
2019-06-20T00:21:03.556Z,100267.27
2019-06-20T00:24:11.067Z,100269.62
2019-06-20T00:27:18.282Z,100270.24
2019-06-20T00:30:25.710Z,100278.66
2019-06-20T00:33:32.939Z,100263.06
2019-06-20T00:36:52.811Z,100256.42
2019-06-20T00:39:59.847Z,100259.92
2019-06-20T00:43:16.897Z,100251.78
2019-06-20T00:46:28.124Z,100246.92
2019-06-20T00:49:35.331Z,100237.59
2019-06-20T00:52:42.647Z,100234.86
2019-06-20T00:56:00.918Z,100223.09
2019-06-20T00:59:26.126Z,100217.83
2019-06-20T01:02:45.440Z,100221.19
2019-06-20T01:06:10.341Z,100219.45
2019-06-20T01:09:29.079Z,100221.70
2019-06-20T01:12:54.336Z,100215.14
2019-06-20T01:16:01.696Z,100213.41
2019-06-20T01:19:26.807Z,100215.86
2019-06-20T01:22:34.070Z,100221.61
2019-06-20T01:25:59.353Z,100223.59
2019-06-20T01:29:19.092Z,100206.84
2019-06-20T01:32:26.328Z,100218.91
2019-06-20T01:35:46.620Z,100207.70
2019-06-20T01:38:53.918Z,100217.47
2019-06-20T01:42:01.210Z,100213.23
2019-06-20T01:45:08.844Z,100209.44
2019-06-20T01:48:16.125Z,100202.87
2019-06-20T01:51:23.499Z,100205.58
2019-06-20T01:54:30.815Z,100190.00
2019-06-20T01:57:49.672Z,100181.76
2019-06-20T02:00:57.150Z,100177.11
2019-06-20T02:04:16.249Z,100170.48
2019-06-20T02:07:41.544Z,100186.47
2019-06-20T02:11:00.367Z,100194.39
2019-06-20T02:14:26.134Z,100189.57
2019-06-20T02:17:44.955Z,100189.84
2019-06-20T02:21:04.480Z,100195.64
2019-06-20T02:24:30.011Z,100201.55
2019-06-20T02:27:54.221Z,100204.41
2019-06-20T02:31:20.068Z,100206.32
2019-06-20T02:34:27.387Z,100208.73
2019-06-20T02:37:46.351Z,100224.75
2019-06-20T02:41:05.520Z,100209.76
2019-06-20T02:44:31.092Z,100212.14
2019-06-20T02:47:38.642Z,100209.02
2019-06-20T02:50:46.002Z,100214.55
2019-06-20T02:53:53.693Z,100213.17
2019-06-20T02:57:01.047Z,100222.12
2019-06-20T03:00:09.032Z,100221.77
2019-06-20T03:03:16.396Z,100225.45
2019-06-20T03:06:22.636Z,100233.23
2019-06-20T03:09:29.920Z,100224.16
2019-06-20T03:12:48.689Z,100228.26
2019-06-20T03:16:07.949Z,100235.35
2019-06-20T03:19:26.773Z,100230.64
2019-06-20T03:22:34.052Z,100235.96
2019-06-20T03:25:58.779Z,100236.05
2019-06-20T03:29:06.135Z,100237.13
2019-06-20T03:32:24.290Z,100231.06
2019-06-20T03:35:31.657Z,100224.50
2019-06-20T03:38:57.388Z,100232.48
2019-06-20T03:42:16.481Z,100230.57
2019-06-20T03:45:23.786Z,100233.91
2019-06-20T03:48:49.195Z,100236.45
2019-06-20T03:51:56.664Z,100242.86
2019-06-20T03:55:04.233Z,100251.33
2019-06-20T03:58:11.501Z,100244.23
2019-06-20T04:01:18.816Z,100244.85
2019-06-20T04:04:26.103Z,100245.86
2019-06-20T04:07:33.485Z,100243.34
2019-06-20T04:10:40.978Z,100240.98
2019-06-20T04:13:48.122Z,100246.26
2019-06-20T04:16:53.773Z,100245.30
2019-06-20T04:20:01.289Z,100246.47
2019-06-20T04:23:20.490Z,100252.45
2019-06-20T04:26:42.816Z,100257.52
2019-06-20T04:30:08.392Z,100263.05
2019-06-20T04:33:15.802Z,100272.41
2019-06-20T04:36:23.132Z,100264.83
2019-06-20T04:39:30.329Z,100266.95
2019-06-20T04:42:37.757Z,100271.56
2019-06-20T04:46:02.944Z,100273.06
2019-06-20T04:49:10.234Z,100266.81
2019-06-20T04:52:17.654Z,100265.86
2019-06-20T04:55:43.004Z,100269.80
2019-06-20T04:59:01.831Z,100268.23
2019-06-20T05:02:07.639Z,100272.73
2019-06-20T05:05:34.231Z,100267.23
2019-06-20T05:08:53.337Z,100270.87
2019-06-20T05:12:00.723Z,100279.61
2019-06-20T05:15:20.139Z,100282.25
2019-06-20T05:18:42.752Z,100281.84
2019-06-20T05:22:01.025Z,100282.25
2019-06-20T05:25:08.481Z,100287.92
2019-06-20T05:28:28.103Z,100291.52
2019-06-20T05:31:53.507Z,100296.20
2019-06-20T05:35:12.521Z,100293.80
2019-06-20T05:38:30.664Z,100301.47
2019-06-20T05:41:55.994Z,100312.64
2019-06-20T05:45:02.046Z,100311.48
2019-06-20T05:48:09.321Z,100308.13
2019-06-20T05:51:16.684Z,100307.23
2019-06-20T05:54:23.872Z,100317.25
2019-06-20T05:57:31.451Z,100322.86
2019-06-20T06:00:38.777Z,100322.10
2019-06-20T06:03:46.190Z,100338.37
2019-06-20T06:06:53.519Z,100339.49
2019-06-20T06:10:18.970Z,100333.82
2019-06-20T06:13:44.085Z,100337.84
2019-06-20T06:16:51.437Z,100344.44
2019-06-20T06:19:58.176Z,100356.78
2019-06-20T06:23:05.584Z,100351.02
2019-06-20T06:26:12.987Z,100342.67
2019-06-20T06:29:38.310Z,100346.91
2019-06-20T06:32:57.413Z,100350.87
2019-06-20T06:36:04.798Z,100352.84
2019-06-20T06:39:23.481Z,100355.78
2019-06-20T06:42:48.725Z,100360.11
2019-06-20T06:45:56.042Z,100367.30
2019-06-20T06:49:15.346Z,100368.14
2019-06-20T06:52:40.571Z,100359.55
2019-06-20T06:56:00.427Z,100362.20
2019-06-20T06:59:20.204Z,100372.56
2019-06-20T07:02:39.264Z,100374.25
2019-06-20T07:05:58.408Z,100375.14
2019-06-20T07:09:08.645Z,100382.29
2019-06-20T07:12:18.382Z,100384.60
2019-06-20T07:15:25.993Z,100391.02
2019-06-20T07:18:33.345Z,100394.67
2019-06-20T07:21:40.768Z,100392.73
2019-06-20T07:24:48.098Z,100396.94
2019-06-20T07:28:12.920Z,100401.98
2019-06-20T07:31:32.737Z,100402.80
2019-06-20T07:34:58.358Z,100409.20
2019-06-20T07:38:05.818Z,100414.33
2019-06-20T07:41:31.433Z,100423.87
2019-06-20T07:44:56.228Z,100426.91
2019-06-20T07:48:03.615Z,100421.28
2019-06-20T07:51:28.180Z,100420.73
2019-06-20T07:54:48.076Z,100424.23
2019-06-20T07:57:55.460Z,100432.12
2019-06-20T08:01:21.033Z,100431.20
2019-06-20T08:04:28.421Z,100444.45
2019-06-20T08:07:47.652Z,100446.04
2019-06-20T08:11:06.464Z,100442.97
2019-06-20T08:14:25.702Z,100441.52
2019-06-20T08:17:45.152Z,100450.44
2019-06-20T08:20:50.854Z,100452.66
2019-06-20T08:24:09.920Z,100455.03
2019-06-20T08:27:18.818Z,100462.17
2019-06-20T08:30:45.991Z,100453.72
2019-06-20T08:33:51.594Z,100460.52
2019-06-20T08:37:16.794Z,100455.36
2019-06-20T08:40:24.953Z,100459.84
2019-06-20T08:43:32.292Z,100463.95
2019-06-20T08:46:39.603Z,100463.27
2019-06-20T08:49:46.923Z,100471.71
2019-06-20T08:52:56.143Z,100479.58
2019-06-20T08:56:03.199Z,100468.73
2019-06-20T08:59:24.816Z,100469.67
2019-06-20T09:02:42.998Z,100473.05
2019-06-20T09:09:21.628Z,100479.17
2019-06-20T09:12:39.896Z,100480.08
2019-06-20T09:15:59.167Z,100486.28
2019-06-20T09:19:06.513Z,100488.70
2019-06-20T09:22:26.162Z,100484.85
2019-06-20T09:25:33.452Z,100490.50
2019-06-20T09:28:55.715Z,100484.85
2019-06-20T09:32:12.795Z,100487.31
2019-06-20T09:35:31.854Z,100492.95
2019-06-20T09:38:57.902Z,100497.83
2019-06-20T09:42:24.479Z,100499.95
2019-06-20T09:45:31.966Z,100503.67
2019-06-20T09:48:52.412Z,100505.36
2019-06-20T09:52:11.334Z,100503.58
2019-06-20T09:55:30.678Z,100502.91
2019-06-20T09:58:49.571Z,100512.38
2019-06-20T10:01:58.774Z,100508.13
2019-06-20T10:05:06.632Z,100503.28
2019-06-20T10:08:25.412Z,100508.91
2019-06-20T10:11:45.331Z,100507.31
2019-06-20T10:14:56.072Z,100505.82
2019-06-20T10:18:02.527Z,100520.50
2019-06-20T10:21:22.006Z,100521.38
2019-06-20T10:24:47.491Z,100528.04
2019-06-20T10:28:07.345Z,100527.55
2019-06-20T10:31:32.313Z,100532.73
2019-06-20T10:34:52.724Z,100535.19
2019-06-20T10:38:00.197Z,100544.75
2019-06-20T10:41:07.524Z,100547.84
2019-06-20T10:44:33.512Z,100556.04
2019-06-20T10:47:58.714Z,100560.13
2019-06-20T10:51:23.647Z,100565.15
2019-06-20T10:54:47.179Z,100563.16
2019-06-20T10:58:04.512Z,100559.16
2019-06-20T11:01:12.026Z,100557.03
2019-06-20T11:04:19.569Z,100572.28
2019-06-20T11:07:27.526Z,100563.63
2019-06-20T11:10:52.460Z,100561.58
2019-06-20T11:14:11.718Z,100562.11
2019-06-20T11:17:19.109Z,100576.41
2019-06-20T11:20:44.460Z,100570.13
2019-06-20T11:24:05.274Z,100561.55
2019-06-20T11:27:24.032Z,100563.09
2019-06-20T11:30:48.159Z,100570.14
2019-06-20T11:33:44.121Z,100573.55
2019-06-20T11:36:52.097Z,100575.04
2019-06-20T11:39:59.756Z,100580.48
2019-06-20T11:43:07.222Z,100571.95
2019-06-20T11:46:14.702Z,100574.74
2019-06-20T11:49:34.706Z,100583.20
2019-06-20T11:52:53.987Z,100579.42
2019-06-20T11:56:19.287Z,100588.75
2019-06-20T11:59:26.612Z,100593.16
2019-06-20T12:02:46.182Z,100600.13
2019-06-20T12:05:53.878Z,100597.17
2019-06-20T12:09:01.217Z,100600.16
2019-06-20T12:12:08.502Z,100588.50
2019-06-20T12:15:33.391Z,100592.99
2019-06-20T12:18:58.033Z,100590.26
2019-06-20T12:22:05.419Z,100597.92
2019-06-20T12:25:26.029Z,100600.89
2019-06-20T12:28:33.322Z,100606.58
2019-06-20T12:31:41.078Z,100607.89
2019-06-20T12:35:05.924Z,100598.61
2019-06-20T12:38:15.126Z,100610.87
2019-06-20T12:41:22.244Z,100607.19
2019-06-20T12:44:29.504Z,100606.70
2019-06-20T12:47:38.229Z,100606.06
2019-06-20T12:50:45.749Z,100600.09
2019-06-20T12:53:52.969Z,100609.82
2019-06-20T12:57:00.458Z,100608.18
2019-06-20T13:00:07.984Z,100608.84
2019-06-20T13:03:33.090Z,100606.75
2019-06-20T13:06:40.578Z,100606.51
2019-06-20T13:09:59.788Z,100607.59
2019-06-20T13:13:06.467Z,100613.95
2019-06-20T13:16:13.746Z,100618.05
2019-06-20T13:19:21.251Z,100616.15
2019-06-20T13:22:41.364Z,100617.61
2019-06-20T13:25:48.733Z,100622.75
2019-06-20T13:29:08.125Z,100621.05
2019-06-20T13:32:15.377Z,100628.16
2019-06-20T13:35:41.870Z,100628.46
2019-06-20T13:39:01.081Z,100630.41
2019-06-20T13:42:19.726Z,100629.59
2019-06-20T13:45:27.388Z,100627.13
2019-06-20T13:48:47.429Z,100631.47
2019-06-20T13:51:54.834Z,100631.47
2019-06-20T13:55:02.159Z,100629.70
2019-06-20T13:58:09.468Z,100628.95
2019-06-20T14:01:16.824Z,100622.59
2019-06-20T14:04:36.530Z,100624.34
2019-06-20T14:07:59.146Z,100618.31
2019-06-20T14:11:17.714Z,100610.16
2019-06-20T14:14:43.999Z,100598.44
2019-06-20T14:17:51.819Z,100609.67
2019-06-20T14:21:11.184Z,100598.80
2019-06-20T14:24:19.837Z,100600.92
2019-06-20T14:27:27.179Z,100603.92
2019-06-20T14:30:52.972Z,100602.38
2019-06-20T14:34:18.319Z,100612.55
2019-06-20T14:37:37.640Z,100606.55
2019-06-20T14:41:02.872Z,100609.72
2019-06-20T14:44:21.572Z,100610.57
2019-06-20T14:47:28.823Z,100609.95
2019-06-20T14:50:55.504Z,100609.56
2019-06-20T14:54:14.011Z,100617.80
2019-06-20T14:57:39.310Z,100621.13
2019-06-20T15:00:58.646Z,100625.11
2019-06-20T15:04:18.854Z,100625.98
2019-06-20T15:07:38.681Z,100628.48
2019-06-20T15:10:57.870Z,100620.13
2019-06-20T15:14:23.837Z,100620.28
2019-06-20T15:17:43.280Z,100626.18
2019-06-20T15:20:51.983Z,100625.98
2019-06-20T15:23:59.882Z,100625.66
2019-06-20T15:27:07.261Z,100634.66
2019-06-20T15:30:14.672Z,100628.11
2019-06-20T15:33:22.462Z,100616.65
2019-06-20T15:36:48.624Z,100621.59
2019-06-20T15:40:13.680Z,100627.82
2019-06-20T15:43:32.747Z,100619.47
2019-06-20T15:46:57.660Z,100613.73
2019-06-20T15:50:16.904Z,100601.77
2019-06-20T15:53:42.164Z,100606.03
2019-06-20T15:57:06.564Z,100612.42
2019-06-20T16:00:26.495Z,100611.73
2019-06-20T16:03:33.878Z,100609.72
2019-06-20T16:06:39.838Z,100618.89
2019-06-20T16:09:47.247Z,100622.12
2019-06-20T16:12:54.726Z,100639.14
2019-06-20T16:16:13.387Z,100642.25
2019-06-20T16:19:32.072Z,100635.53
2019-06-20T16:22:39.472Z,100636.14
2019-06-20T16:26:04.774Z,100639.09
2019-06-20T16:29:11.000Z,100639.38
2019-06-20T16:32:18.440Z,100636.09
2019-06-20T16:35:25.819Z,100637.56
2019-06-20T16:38:33.430Z,100639.19
2019-06-20T16:41:53.948Z,100633.13
2019-06-20T16:45:01.780Z,100643.84
2019-06-20T16:48:26.905Z,100636.97
2019-06-20T16:51:45.591Z,100640.23
2019-06-20T16:54:52.892Z,100647.37
2019-06-20T16:58:12.171Z,100639.84
2019-06-20T17:01:38.034Z,100638.62
2019-06-20T17:05:02.843Z,100640.42
2019-06-20T17:08:28.532Z,100636.81
2019-06-20T17:11:53.966Z,100640.23
2019-06-20T17:15:12.791Z,100632.00
2019-06-20T17:18:37.752Z,100631.00
2019-06-20T17:22:03.563Z,100633.39
2019-06-20T17:25:23.303Z,100639.86
2019-06-20T17:28:28.976Z,100639.98
2019-06-20T17:31:47.698Z,100638.19
2019-06-20T17:34:54.979Z,100642.52
2019-06-20T17:38:14.457Z,100648.57
2019-06-20T17:41:34.301Z,100647.39
2019-06-20T17:44:58.999Z,100645.48
2019-06-20T17:48:06.282Z,100651.11
2019-06-20T17:51:25.363Z,100655.85
2019-06-20T17:54:50.818Z,100653.94
2019-06-20T17:58:14.996Z,100646.58
2019-06-20T18:01:22.287Z,100649.89
2019-06-20T18:04:41.477Z,100653.92
2019-06-20T18:08:14.087Z,100652.48
2019-06-20T18:11:08.701Z,100653.98
2019-06-20T18:14:27.516Z,100652.19
2019-06-20T18:17:35.729Z,100657.30
2019-06-20T18:20:55.477Z,100656.34
2019-06-20T18:24:02.721Z,100661.41
2019-06-20T18:27:22.116Z,100658.95
2019-06-20T18:30:44.450Z,100654.24
2019-06-20T18:33:51.654Z,100664.52
2019-06-20T18:36:59.069Z,100677.58
2019-06-20T18:40:07.180Z,100684.69
2019-06-20T18:43:14.716Z,100693.89
2019-06-20T18:46:33.323Z,100688.67
2019-06-20T18:49:51.511Z,100687.80
2019-06-20T18:53:16.205Z,100687.66
2019-06-20T18:56:23.534Z,100699.27
2019-06-20T18:59:32.658Z,100700.78
2019-06-20T19:02:38.747Z,100693.47
2019-06-20T19:05:46.154Z,100699.22
2019-06-20T19:08:53.534Z,100701.65
2019-06-20T19:12:00.825Z,100695.94
2019-06-20T19:15:07.251Z,100703.50
2019-06-20T19:18:15.693Z,100707.40
2019-06-20T19:21:34.755Z,100702.80
2019-06-20T19:24:59.559Z,100705.73
2019-06-20T19:28:24.322Z,100712.77
2019-06-20T19:31:44.134Z,100714.08
2019-06-20T19:35:10.397Z,100724.20
2019-06-20T19:38:18.197Z,100731.16
2019-06-20T19:41:25.665Z,100731.32
2019-06-20T19:44:33.020Z,100733.03
2019-06-20T19:47:40.492Z,100750.67
2019-06-20T19:50:59.748Z,100751.84
2019-06-20T19:54:25.210Z,100760.03
2019-06-20T19:57:35.359Z,100757.75
2019-06-20T20:00:42.737Z,100755.37
2019-06-20T20:04:08.996Z,100743.80
2019-06-20T20:07:16.309Z,100749.67
2019-06-20T20:10:32.759Z,100738.53
2019-06-20T20:13:40.217Z,100757.02
2019-06-20T20:16:47.793Z,100757.62
2019-06-20T20:19:55.266Z,100765.92
2019-06-20T20:23:20.454Z,100765.79
2019-06-20T20:26:39.702Z,100758.11
2019-06-20T20:29:47.010Z,100775.30
2019-06-20T20:33:06.650Z,100782.98
2019-06-20T20:36:31.253Z,100784.89
2019-06-20T20:39:56.683Z,100782.16
2019-06-20T20:43:15.811Z,100797.18
2019-06-20T20:46:23.248Z,100806.55
2019-06-20T20:49:48.255Z,100806.90
2019-06-20T20:52:55.668Z,100808.38
2019-06-20T20:56:14.896Z,100809.55
2019-06-20T20:59:40.743Z,100821.01
2019-06-20T21:03:07.413Z,100829.64
2019-06-20T21:06:14.758Z,100832.55
2019-06-20T21:09:34.614Z,100832.55
2019-06-20T21:13:00.316Z,100835.62
2019-06-20T21:16:07.300Z,100834.11
2019-06-20T21:19:14.662Z,100846.17
2019-06-20T21:22:21.889Z,100852.45
2019-06-20T21:25:32.197Z,100863.94
2019-06-20T21:28:49.928Z,100854.10
2019-06-20T21:31:57.382Z,100853.75
2019-06-20T21:35:16.797Z,100848.08
2019-06-20T21:38:35.303Z,100857.78
2019-06-20T21:41:42.635Z,100865.14
2019-06-20T21:45:02.499Z,100869.62
2019-06-20T21:48:27.660Z,100872.00
2019-06-20T21:51:35.030Z,100876.73
2019-06-20T21:55:00.308Z,100882.38
2019-06-20T21:58:19.504Z,100882.28
2019-06-20T22:01:26.818Z,100875.45
2019-06-20T22:04:33.358Z,100877.58
2019-06-20T22:07:40.839Z,100886.17
2019-06-20T22:10:48.178Z,100886.67
2019-06-20T22:13:55.437Z,100893.28
2019-06-20T22:17:02.850Z,100885.86
2019-06-20T22:20:23.346Z,100890.94
2019-06-20T22:23:30.538Z,100893.54
2019-06-20T22:26:37.855Z,100894.14
2019-06-20T22:29:45.051Z,100899.94
2019-06-20T22:32:52.625Z,100900.75
2019-06-20T22:35:59.865Z,100913.28
2019-06-20T22:39:08.231Z,100910.55
2019-06-20T22:42:15.444Z,100914.23
2019-06-20T22:45:22.848Z,100914.09
2019-06-20T22:48:30.237Z,100919.29
2019-06-20T22:51:37.570Z,100924.38
2019-06-20T22:54:44.877Z,100924.23
2019-06-20T22:57:52.180Z,100923.77
2019-06-20T23:01:12.054Z,100928.37
2019-06-20T23:04:37.741Z,100929.68
2019-06-20T23:07:56.923Z,100926.46
2019-06-20T23:11:06.434Z,100929.89
2019-06-20T23:14:15.283Z,100930.95
2019-06-20T23:17:22.575Z,100929.88
2019-06-20T23:20:29.914Z,100935.33
2019-06-20T23:23:36.477Z,100935.65
2019-06-20T23:26:54.494Z,100936.00
2019-06-20T23:30:14.903Z,100937.78
2019-06-20T23:33:22.316Z,100939.98
2019-06-20T23:36:29.450Z,100945.98
2019-06-20T23:39:36.839Z,100951.61
2019-06-20T23:42:56.326Z,100956.22
2019-06-20T23:46:14.764Z,100948.06
2019-06-20T23:49:33.455Z,100938.98
2019-06-20T23:52:42.391Z,100949.83
2019-06-20T23:56:09.006Z,100943.34
2019-06-20T23:59:27.849Z,100948.27
